This is the latest recevied weather packets stored in our database for station/object HK4D-13. If no packets are shown the sender has not sent any weather packets the latest 10 day(s).
| Time | Temp. | Humidity | Pressure | Rain* | Wind** | Luminosity | Snow |
|---|---|---|---|---|---|---|---|
| 1777585720 | 20° C | 68% | 1008 hPa | 0 mm | - | - | - |
| 1777585119 | 21.67° C | 63% | 1008 hPa | 0 mm | - | - | - |
| 1777584519 | 22.22° C | 58% | 1006 hPa | 0 mm | - | - | - |
| 1777583918 | 22.78° C | 57% | 1006 hPa | 0 mm | - | - | - |
| 1777583318 | 22.78° C | 59% | 1006 hPa | 0 mm | - | - | - |
| 1777582718 | 22.78° C | 59% | 1006 hPa | 0 mm | - | - | - |
| 1777582117 | 22.78° C | 59% | 1006 hPa | 0 mm | - | - | - |
| 1777581516 | 22.78° C | 58% | 1006 hPa | 0 mm | - | - | - |
| 1777580916 | 22.78° C | 56% | 1006 hPa | 0 mm | - | - | - |
| 1777580314 | 22.78° C | 55% | 1006 hPa | 0 mm | - | - | - |
| 1777579713 | 22.78° C | 54% | 1006 hPa | 0 mm | - | - | - |
| 1777579110 | 22.78° C | 52% | 1006 hPa | 0 mm | - | - | - |
| 1777578509 | 22.78° C | 52% | 1006 hPa | 0 mm | - | - | - |
| 1777577909 | 22.78° C | 52% | 1006 hPa | 0 mm | - | - | - |
| 1777577303 | 22.78° C | 52% | 1006 hPa | 0 mm | - | - | - |
| 1777576701 | 22.22° C | 52% | 1006 hPa | 0 mm | - | - | - |
| 1777576101 | 22.22° C | 52% | 1006 hPa | 0 mm | - | - | - |
| 1777575500 | 22.22° C | 52% | 1006 hPa | 0 mm | - | - | - |
| 1777574899 | 22.22° C | 52% | 1006 hPa | 0 mm | - | - | - |
| 1777574297 | 22.22° C | 52% | 1007 hPa | 0 mm | - | - | - |
| 1777573695 | 22.22° C | 52% | 1008 hPa | 0 mm | - | - | - |
| 1777573094 | 22.22° C | 51% | 1008 hPa | 0 mm | - | - | - |
| 1777572494 | 22.22° C | 50% | 1008 hPa | 0 mm | - | - | - |
| 1777571892 | 22.22° C | 50% | 1008 hPa | 0 mm | - | - | - |
| 1777571291 | 21.67° C | 51% | 1008 hPa | 0 mm | - | - | - |
* Rain latest hour (hover to see other rain measurements)
** Current wind speed in m/s (hover to see current wind gust speed)